sensor_id;sensor_type;location;lat;lon;timestamp;pressure;altitude;pressure_sealevel;temperature;humidity
66668;BME280;57205;51.438;-2.006;2024-03-06T00:02:04;101236.78;;;1.49;100.00
66668;BME280;57205;51.438;-2.006;2024-03-06T00:04:30;101235.16;;;1.48;100.00
66668;BME280;57205;51.438;-2.006;2024-03-06T00:06:56;101236.97;;;1.47;100.00
66668;BME280;57205;51.438;-2.006;2024-03-06T00:09:23;101240.44;;;1.48;100.00
66668;BME280;57205;51.438;-2.006;2024-03-06T00:11:48;101237.59;;;1.49;100.00
66668;BME280;57205;51.438;-2.006;2024-03-06T00:14:16;101236.78;;;1.49;100.00
66668;BME280;57205;51.438;-2.006;2024-03-06T00:16:42;101240.25;;;1.49;100.00
66668;BME280;57205;51.438;-2.006;2024-03-06T00:19:18;101242.06;;;1.49;100.00
66668;BME280;57205;51.438;-2.006;2024-03-06T00:21:50;101248.53;;;1.46;100.00
66668;BME280;57205;51.438;-2.006;2024-03-06T00:24:16;101256.66;;;1.45;100.00
66668;BME280;57205;51.438;-2.006;2024-03-06T00:26:43;101249.94;;;1.42;100.00
66668;BME280;57205;51.438;-2.006;2024-03-06T00:29:13;101251.31;;;1.38;100.00
66668;BME280;57205;51.438;-2.006;2024-03-06T00:31:45;101255.75;;;1.38;100.00
66668;BME280;57205;51.438;-2.006;2024-03-06T00:34:11;101255.75;;;1.38;100.00
66668;BME280;57205;51.438;-2.006;2024-03-06T00:36:39;101256.56;;;1.38;100.00
66668;BME280;57205;51.438;-2.006;2024-03-06T00:39:05;101250.47;;;1.38;100.00
66668;BME280;57205;51.438;-2.006;2024-03-06T00:41:31;101257.41;;;1.39;100.00
66668;BME280;57205;51.438;-2.006;2024-03-06T00:43:56;101257.41;;;1.39;100.00
66668;BME280;57205;51.438;-2.006;2024-03-06T00:46:22;101257.00;;;1.42;100.00
66668;BME280;57205;51.438;-2.006;2024-03-06T00:48:48;101264.28;;;1.40;100.00
66668;BME280;57205;51.438;-2.006;2024-03-06T00:51:13;101252.47;;;1.36;100.00
66668;BME280;57205;51.438;-2.006;2024-03-06T00:53:38;101260.59;;;1.34;100.00
66668;BME280;57205;51.438;-2.006;2024-03-06T00:56:04;101264.25;;;1.33;100.00
66668;BME280;57205;51.438;-2.006;2024-03-06T00:58:30;101260.53;;;1.28;100.00
66668;BME280;57205;51.438;-2.006;2024-03-06T01:00:55;101267.00;;;1.25;100.00
66668;BME280;57205;51.438;-2.006;2024-03-06T01:03:21;101262.09;;;1.22;100.00
66668;BME280;57205;51.438;-2.006;2024-03-06T01:05:46;101260.91;;;1.25;100.00
66668;BME280;57205;51.438;-2.006;2024-03-06T01:08:12;101265.91;;;1.20;100.00
66668;BME280;57205;51.438;-2.006;2024-03-06T01:10:37;101261.78;;;1.11;100.00
66668;BME280;57205;51.438;-2.006;2024-03-06T01:13:03;101253.34;;;1.00;100.00
66668;BME280;57205;51.438;-2.006;2024-03-06T01:15:28;101257.72;;;0.93;100.00
66668;BME280;57205;51.438;-2.006;2024-03-06T01:17:54;101249.97;;;0.85;100.00
66668;BME280;57205;51.438;-2.006;2024-03-06T01:20:19;101251.69;;;0.78;100.00
66668;BME280;57205;51.438;-2.006;2024-03-06T01:22:44;101246.34;;;0.72;100.00
66668;BME280;57205;51.438;-2.006;2024-03-06T01:25:11;101251.50;;;0.65;100.00
66668;BME280;57205;51.438;-2.006;2024-03-06T01:27:37;101251.06;;;0.62;100.00
66668;BME280;57205;51.438;-2.006;2024-03-06T01:30:02;101260.63;;;0.63;100.00
66668;BME280;57205;51.438;-2.006;2024-03-06T01:32:29;101261.41;;;0.63;100.00
66668;BME280;57205;51.438;-2.006;2024-03-06T01:34:55;101255.69;;;0.60;100.00
66668;BME280;57205;51.438;-2.006;2024-03-06T01:37:20;101260.53;;;0.56;100.00
66668;BME280;57205;51.438;-2.006;2024-03-06T01:39:45;101255.44;;;0.55;100.00
66668;BME280;57205;51.438;-2.006;2024-03-06T01:42:11;101256.91;;;0.57;100.00
66668;BME280;57205;51.438;-2.006;2024-03-06T01:44:36;101251.63;;;0.57;100.00
66668;BME280;57205;51.438;-2.006;2024-03-06T01:47:02;101252.53;;;0.64;100.00
66668;BME280;57205;51.438;-2.006;2024-03-06T01:49:27;101252.97;;;0.68;100.00
66668;BME280;57205;51.438;-2.006;2024-03-06T01:51:55;101259.88;;;0.69;100.00
66668;BME280;57205;51.438;-2.006;2024-03-06T01:54:21;101257.06;;;0.70;100.00
66668;BME280;57205;51.438;-2.006;2024-03-06T01:56:49;101253.63;;;0.70;100.00
66668;BME280;57205;51.438;-2.006;2024-03-06T01:59:21;101252.16;;;0.67;100.00
66668;BME280;57205;51.438;-2.006;2024-03-06T02:01:46;101250.53;;;0.66;100.00
66668;BME280;57205;51.438;-2.006;2024-03-06T02:04:22;101247.34;;;0.71;100.00
66668;BME280;57205;51.438;-2.006;2024-03-06T02:06:55;101259.06;;;0.68;100.00
66668;BME280;57205;51.438;-2.006;2024-03-06T02:09:24;101252.16;;;0.67;100.00
66668;BME280;57205;51.438;-2.006;2024-03-06T02:11:49;101257.88;;;0.71;100.00
66668;BME280;57205;51.438;-2.006;2024-03-06T02:14:16;101259.88;;;0.69;100.00
66668;BME280;57205;51.438;-2.006;2024-03-06T02:16:41;101256.00;;;0.65;100.00
66668;BME280;57205;51.438;-2.006;2024-03-06T02:19:08;101261.59;;;0.62;100.00
66668;BME280;57205;51.438;-2.006;2024-03-06T02:21:34;101260.19;;;0.59;100.00
66668;BME280;57205;51.438;-2.006;2024-03-06T02:24:00;101262.16;;;0.57;100.00
66668;BME280;57205;51.438;-2.006;2024-03-06T02:26:25;101255.97;;;0.50;100.00
66668;BME280;57205;51.438;-2.006;2024-03-06T02:28:53;101248.19;;;0.42;100.00
66668;BME280;57205;51.438;-2.006;2024-03-06T02:31:19;101260.28;;;0.37;100.00
66668;BME280;57205;51.438;-2.006;2024-03-06T02:33:48;101255.34;;;0.34;100.00
66668;BME280;57205;51.438;-2.006;2024-03-06T02:36:15;101256.81;;;0.36;100.00
66668;BME280;57205;51.438;-2.006;2024-03-06T02:38:42;101257.84;;;0.35;100.00
66668;BME280;57205;51.438;-2.006;2024-03-06T02:41:08;101259.00;;;0.33;100.00
66668;BME280;57205;51.438;-2.006;2024-03-06T02:43:34;101256.19;;;0.34;100.00
66668;BME280;57205;51.438;-2.006;2024-03-06T02:46:01;101255.81;;;0.37;100.00
66668;BME280;57205;51.438;-2.006;2024-03-06T02:48:27;101259.44;;;0.36;100.00
66668;BME280;57205;51.438;-2.006;2024-03-06T02:50:53;101252.91;;;0.32;100.00
66668;BME280;57205;51.438;-2.006;2024-03-06T02:53:18;101252.28;;;0.30;100.00
66668;BME280;57205;51.438;-2.006;2024-03-06T02:55:44;101263.44;;;0.32;100.00
66668;BME280;57205;51.438;-2.006;2024-03-06T02:58:09;101255.72;;;0.31;100.00
66668;BME280;57205;51.438;-2.006;2024-03-06T03:00:44;101255.72;;;0.31;100.00
66668;BME280;57205;51.438;-2.006;2024-03-06T03:03:10;101249.66;;;0.30;100.00
66668;BME280;57205;51.438;-2.006;2024-03-06T03:05:38;101249.00;;;0.28;100.00
66668;BME280;57205;51.438;-2.006;2024-03-06T03:08:07;101248.22;;;0.28;100.00
66668;BME280;57205;51.438;-2.006;2024-03-06T03:10:33;101251.63;;;0.28;100.00
66668;BME280;57205;51.438;-2.006;2024-03-06T03:13:01;101253.81;;;0.25;100.00
66668;BME280;57205;51.438;-2.006;2024-03-06T03:15:27;101249.75;;;0.22;100.00
66668;BME280;57205;51.438;-2.006;2024-03-06T03:17:52;101250.53;;;0.23;100.00
66668;BME280;57205;51.438;-2.006;2024-03-06T03:20:18;101263.56;;;0.24;100.00
66668;BME280;57205;51.438;-2.006;2024-03-06T03:22:43;101252.72;;;0.19;100.00
66668;BME280;57205;51.438;-2.006;2024-03-06T03:25:10;101251.28;;;0.17;100.00
66668;BME280;57205;51.438;-2.006;2024-03-06T03:27:40;101254.28;;;0.14;100.00
66668;BME280;57205;51.438;-2.006;2024-03-06T03:30:10;101255.09;;;0.14;100.00
66668;BME280;57205;51.438;-2.006;2024-03-06T03:32:36;101249.84;;;0.14;100.00
66668;BME280;57205;51.438;-2.006;2024-03-06T03:35:04;101253.63;;;0.12;100.00
66668;BME280;57205;51.438;-2.006;2024-03-06T03:37:30;101262.53;;;0.11;100.00
66668;BME280;57205;51.438;-2.006;2024-03-06T03:39:56;101255.63;;;0.10;100.00
66668;BME280;57205;51.438;-2.006;2024-03-06T03:42:21;101248.56;;;0.10;100.00
66668;BME280;57205;51.438;-2.006;2024-03-06T03:44:46;101247.56;;;0.11;100.00
66668;BME280;57205;51.438;-2.006;2024-03-06T03:47:13;101247.19;;;0.14;100.00
66668;BME280;57205;51.438;-2.006;2024-03-06T03:49:38;101258.72;;;0.13;100.00
66668;BME280;57205;51.438;-2.006;2024-03-06T03:52:04;101250.22;;;0.11;100.00
66668;BME280;57205;51.438;-2.006;2024-03-06T03:54:29;101269.59;;;0.10;100.00
66668;BME280;57205;51.438;-2.006;2024-03-06T03:56:55;101270.63;;;0.09;100.00
66668;BME280;57205;51.438;-2.006;2024-03-06T03:59:20;101254.19;;;0.07;100.00
66668;BME280;57205;51.438;-2.006;2024-03-06T04:01:46;101264.72;;;0.07;100.00
66668;BME280;57205;51.438;-2.006;2024-03-06T04:04:15;101267.16;;;0.09;100.00
66668;BME280;57205;51.438;-2.006;2024-03-06T04:06:40;101266.97;;;0.10;100.00
66668;BME280;57205;51.438;-2.006;2024-03-06T04:09:06;101263.69;;;0.08;100.00
66668;BME280;57205;51.438;-2.006;2024-03-06T04:11:36;101263.88;;;0.07;100.00
66668;BME280;57205;51.438;-2.006;2024-03-06T04:14:03;101262.28;;;0.06;100.00
66668;BME280;57205;51.438;-2.006;2024-03-06T04:16:28;101265.69;;;0.06;100.00
66668;BME280;57205;51.438;-2.006;2024-03-06T04:18:53;101265.88;;;0.05;100.00
66668;BME280;57205;51.438;-2.006;2024-03-06T04:21:19;101270.88;;;-0.01;100.00
66668;BME280;57205;51.438;-2.006;2024-03-06T04:23:48;101267.78;;;-0.04;100.00
66668;BME280;57205;51.438;-2.006;2024-03-06T04:26:17;101272.09;;;-0.11;100.00
66668;BME280;57205;51.438;-2.006;2024-03-06T04:28:43;101273.63;;;-0.17;100.00
66668;BME280;57205;51.438;-2.006;2024-03-06T04:31:09;101272.38;;;-0.21;100.00
66668;BME280;57205;51.438;-2.006;2024-03-06T04:33:35;101273.53;;;-0.23;100.00
66668;BME280;57205;51.438;-2.006;2024-03-06T04:36:02;101273.09;;;-0.27;100.00
66668;BME280;57205;51.438;-2.006;2024-03-06T04:38:28;101275.25;;;-0.30;100.00
66668;BME280;57205;51.438;-2.006;2024-03-06T04:40:54;101273.16;;;-0.35;100.00
66668;BME280;57205;51.438;-2.006;2024-03-06T04:43:19;101273.69;;;-0.39;100.00
66668;BME280;57205;51.438;-2.006;2024-03-06T04:45:45;101269.97;;;-0.45;100.00
66668;BME280;57205;51.438;-2.006;2024-03-06T04:48:10;101279.53;;;-0.52;100.00
66668;BME280;57205;51.438;-2.006;2024-03-06T04:50:36;101278.06;;;-0.54;100.00
66668;BME280;57205;51.438;-2.006;2024-03-06T04:53:02;101278.25;;;-0.56;100.00
66668;BME280;57205;51.438;-2.006;2024-03-06T04:55:27;101278.88;;;-0.54;100.00
66668;BME280;57205;51.438;-2.006;2024-03-06T04:57:53;101286.75;;;-0.54;100.00
66668;BME280;57205;51.438;-2.006;2024-03-06T05:00:19;101278.25;;;-0.56;100.00
66668;BME280;57205;51.438;-2.006;2024-03-06T05:02:45;101283.53;;;-0.56;100.00
66668;BME280;57205;51.438;-2.006;2024-03-06T05:05:11;101289.94;;;-0.58;100.00
66668;BME280;57205;51.438;-2.006;2024-03-06T05:07:36;101289.09;;;-0.59;100.00
66668;BME280;57205;51.438;-2.006;2024-03-06T05:10:03;101291.09;;;-0.61;100.00
66668;BME280;57205;51.438;-2.006;2024-03-06T05:12:28;101296.88;;;-0.65;100.00
66668;BME280;57205;51.438;-2.006;2024-03-06T05:14:55;101301.81;;;-0.70;100.00
66668;BME280;57205;51.438;-2.006;2024-03-06T05:17:21;101300.56;;;-0.74;100.00
66668;BME280;57205;51.438;-2.006;2024-03-06T05:19:47;101305.50;;;-0.79;100.00
66668;BME280;57205;51.438;-2.006;2024-03-06T05:22:16;101301.91;;;-0.78;100.00
66668;BME280;57205;51.438;-2.006;2024-03-06T05:24:44;101306.16;;;-0.77;100.00
66668;BME280;57205;51.438;-2.006;2024-03-06T05:27:10;101308.13;;;-0.79;100.00
66668;BME280;57205;51.438;-2.006;2024-03-06T05:29:43;101307.31;;;-0.80;100.00
66668;BME280;57205;51.438;-2.006;2024-03-06T05:32:08;101309.13;;;-0.80;100.00
66668;BME280;57205;51.438;-2.006;2024-03-06T05:34:34;101312.41;;;-0.78;100.00
66668;BME280;57205;51.438;-2.006;2024-03-06T05:37:00;101313.50;;;-0.73;100.00
66668;BME280;57205;51.438;-2.006;2024-03-06T05:39:26;101310.72;;;-0.71;100.00
66668;BME280;57205;51.438;-2.006;2024-03-06T05:41:54;101309.41;;;-0.75;100.00
66668;BME280;57205;51.438;-2.006;2024-03-06T05:44:19;101315.50;;;-0.75;100.00
66668;BME280;57205;51.438;-2.006;2024-03-06T05:46:46;101323.66;;;-0.70;100.00
66668;BME280;57205;51.438;-2.006;2024-03-06T05:49:12;101331.84;;;-0.65;100.00
66668;BME280;57205;51.438;-2.006;2024-03-06T05:51:38;101329.06;;;-0.63;100.00
66668;BME280;57205;51.438;-2.006;2024-03-06T05:54:03;101325.91;;;-0.59;100.00
66668;BME280;57205;51.438;-2.006;2024-03-06T05:56:29;101327.53;;;-0.58;100.00
66668;BME280;57205;51.438;-2.006;2024-03-06T05:58:55;101328.69;;;-0.60;100.00
66668;BME280;57205;51.438;-2.006;2024-03-06T06:01:20;101332.00;;;-0.66;100.00
66668;BME280;57205;51.438;-2.006;2024-03-06T06:03:47;101336.34;;;-0.73;100.00
66668;BME280;57205;51.438;-2.006;2024-03-06T06:06:17;101335.69;;;-0.75;100.00
66668;BME280;57205;51.438;-2.006;2024-03-06T06:08:45;101340.66;;;-0.80;100.00
66668;BME280;57205;51.438;-2.006;2024-03-06T06:11:12;101336.56;;;-0.83;100.00
66668;BME280;57205;51.438;-2.006;2024-03-06T06:13:38;101337.38;;;-0.82;100.00
66668;BME280;57205;51.438;-2.006;2024-03-06T06:16:05;101336.72;;;-0.84;100.00
66668;BME280;57205;51.438;-2.006;2024-03-06T06:18:30;101346.09;;;-0.82;100.00
66668;BME280;57205;51.438;-2.006;2024-03-06T06:20:57;101338.72;;;-0.86;100.00
66668;BME280;57205;51.438;-2.006;2024-03-06T06:23:23;101337.09;;;-0.87;100.00
66668;BME280;57205;51.438;-2.006;2024-03-06T06:25:48;101346.75;;;-0.88;100.00
66668;BME280;57205;51.438;-2.006;2024-03-06T06:28:14;101365.91;;;-0.79;100.00
66668;BME280;57205;51.438;-2.006;2024-03-06T06:30:39;101348.19;;;-0.77;100.00
66668;BME280;57205;51.438;-2.006;2024-03-06T06:33:06;101347.50;;;-0.71;100.00
66668;BME280;57205;51.438;-2.006;2024-03-06T06:35:31;101357.78;;;-0.62;100.00
66668;BME280;57205;51.438;-2.006;2024-03-06T06:37:57;101358.25;;;-0.58;100.00
66668;BME280;57205;51.438;-2.006;2024-03-06T06:40:23;101363.78;;;-0.53;100.00
66668;BME280;57205;51.438;-2.006;2024-03-06T06:42:49;101363.47;;;-0.50;100.00
66668;BME280;57205;51.438;-2.006;2024-03-06T06:45:19;101357.69;;;-0.46;100.00
66668;BME280;57205;51.438;-2.006;2024-03-06T06:47:45;101365.06;;;-0.41;100.00
66668;BME280;57205;51.438;-2.006;2024-03-06T06:50:11;101367.31;;;-0.38;100.00
66668;BME280;57205;51.438;-2.006;2024-03-06T06:52:38;101367.78;;;-0.35;100.00
66668;BME280;57205;51.438;-2.006;2024-03-06T06:55:04;101367.44;;;-0.32;100.00
66668;BME280;57205;51.438;-2.006;2024-03-06T06:57:31;101373.00;;;-0.27;100.00
66668;BME280;57205;51.438;-2.006;2024-03-06T06:59:56;101378.72;;;-0.23;100.00
66668;BME280;57205;51.438;-2.006;2024-03-06T07:02:24;101371.47;;;-0.21;100.00
66668;BME280;57205;51.438;-2.006;2024-03-06T07:04:50;101373.63;;;-0.25;100.00
66668;BME280;57205;51.438;-2.006;2024-03-06T07:07:15;101379.19;;;-0.20;100.00
66668;BME280;57205;51.438;-2.006;2024-03-06T07:09:42;101382.56;;;-0.11;100.00
66668;BME280;57205;51.438;-2.006;2024-03-06T07:12:08;101387.47;;;-0.08;100.00
66668;BME280;57205;51.438;-2.006;2024-03-06T07:14:33;101388.78;;;-0.04;100.00
66668;BME280;57205;51.438;-2.006;2024-03-06T07:17:00;101386.94;;;-0.04;100.00
66668;BME280;57205;51.438;-2.006;2024-03-06T07:19:26;101386.41;;;0.01;100.00
66668;BME280;57205;51.438;-2.006;2024-03-06T07:21:53;101389.16;;;0.08;100.00
66668;BME280;57205;51.438;-2.006;2024-03-06T07:24:20;101385.72;;;0.07;100.00
66668;BME280;57205;51.438;-2.006;2024-03-06T07:26:47;101384.91;;;0.07;100.00
66668;BME280;57205;51.438;-2.006;2024-03-06T07:29:14;101394.97;;;0.03;100.00
66668;BME280;57205;51.438;-2.006;2024-03-06T07:31:42;101389.78;;;0.10;100.00
66668;BME280;57205;51.438;-2.006;2024-03-06T07:34:10;101398.97;;;0.14;100.00
66668;BME280;57205;51.438;-2.006;2024-03-06T07:36:36;101388.91;;;0.17;100.00
66668;BME280;57205;51.438;-2.006;2024-03-06T07:39:04;101398.00;;;0.15;100.00
66668;BME280;57205;51.438;-2.006;2024-03-06T07:41:30;101399.56;;;0.24;100.00
66668;BME280;57205;51.438;-2.006;2024-03-06T07:43:59;101408.19;;;0.32;100.00
66668;BME280;57205;51.438;-2.006;2024-03-06T07:46:28;101411.66;;;0.47;100.00
66668;BME280;57205;51.438;-2.006;2024-03-06T07:48:54;101415.22;;;0.54;100.00
66668;BME280;57205;51.438;-2.006;2024-03-06T07:51:20;101410.06;;;0.61;100.00
66668;BME280;57205;51.438;-2.006;2024-03-06T07:53:45;101416.88;;;0.70;100.00
66668;BME280;57205;51.438;-2.006;2024-03-06T07:56:11;101409.50;;;0.80;100.00
66668;BME280;57205;51.438;-2.006;2024-03-06T07:58:37;101405.25;;;0.93;100.00
66668;BME280;57205;51.438;-2.006;2024-03-06T08:01:03;101414.16;;;1.22;100.00
66668;BME280;57205;51.438;-2.006;2024-03-06T08:03:30;101413.19;;;1.44;100.00
66668;BME280;57205;51.438;-2.006;2024-03-06T08:05:55;101409.97;;;1.63;100.00
66668;BME280;57205;51.438;-2.006;2024-03-06T08:08:22;101410.75;;;1.78;100.00
66668;BME280;57205;51.438;-2.006;2024-03-06T08:10:49;101399.41;;;1.84;100.00
66668;BME280;57205;51.438;-2.006;2024-03-06T08:13:15;101408.91;;;1.99;100.00
66668;BME280;57205;51.438;-2.006;2024-03-06T08:15:41;101404.63;;;2.20;100.00
66668;BME280;57205;51.438;-2.006;2024-03-06T08:18:09;101410.88;;;2.40;100.00
66668;BME280;57205;51.438;-2.006;2024-03-06T08:20:34;101405.72;;;2.53;100.00
66668;BME280;57205;51.438;-2.006;2024-03-06T08:23:02;101404.75;;;2.60;100.00
66668;BME280;57205;51.438;-2.006;2024-03-06T08:25:27;101400.16;;;2.69;100.00
66668;BME280;57205;51.438;-2.006;2024-03-06T08:27:53;101398.56;;;2.74;100.00
66668;BME280;57205;51.438;-2.006;2024-03-06T08:30:19;101393.56;;;2.92;100.00
66668;BME280;57205;51.438;-2.006;2024-03-06T08:32:46;101392.09;;;3.18;100.00
66668;BME280;57205;51.438;-2.006;2024-03-06T08:35:12;101382.19;;;3.46;100.00
66668;BME280;57205;51.438;-2.006;2024-03-06T08:37:41;101380.78;;;3.50;100.00
66668;BME280;57205;51.438;-2.006;2024-03-06T08:40:07;101373.31;;;3.79;100.00
66668;BME280;57205;51.438;-2.006;2024-03-06T08:42:34;101372.31;;;3.87;100.00
66668;BME280;57205;51.438;-2.006;2024-03-06T08:44:59;101375.59;;;4.02;100.00
66668;BME280;57205;51.438;-2.006;2024-03-06T08:47:26;101372.97;;;4.28;100.00
66668;BME280;57205;51.438;-2.006;2024-03-06T08:49:51;101370.09;;;4.49;100.00
66668;BME280;57205;51.438;-2.006;2024-03-06T08:52:17;101372.09;;;4.73;100.00
66668;BME280;57205;51.438;-2.006;2024-03-06T08:54:46;101375.38;;;5.26;100.00
66668;BME280;57205;51.438;-2.006;2024-03-06T08:57:11;101378.59;;;5.72;100.00
66668;BME280;57205;51.438;-2.006;2024-03-06T08:59:37;101369.78;;;6.10;100.00
66668;BME280;57205;51.438;-2.006;2024-03-06T09:02:13;101374.19;;;6.47;100.00
66668;BME280;57205;51.438;-2.006;2024-03-06T09:04:42;101372.09;;;6.73;100.00
66668;BME280;57205;51.438;-2.006;2024-03-06T09:07:08;101375.03;;;6.65;100.00
66668;BME280;57205;51.438;-2.006;2024-03-06T09:09:35;101370.72;;;6.89;100.00
66668;BME280;57205;51.438;-2.006;2024-03-06T09:12:09;101373.41;;;6.64;100.00
66668;BME280;57205;51.438;-2.006;2024-03-06T09:14:38;101376.94;;;6.58;100.00
66668;BME280;57205;51.438;-2.006;2024-03-06T09:17:05;101381.53;;;6.69;100.00
66668;BME280;57205;51.438;-2.006;2024-03-06T09:19:32;101374.03;;;7.21;100.00
66668;BME280;57205;51.438;-2.006;2024-03-06T09:21:58;101379.75;;;7.54;100.00
66668;BME280;57205;51.438;-2.006;2024-03-06T09:24:25;101381.38;;;8.37;100.00
66668;BME280;57205;51.438;-2.006;2024-03-06T09:26:51;101371.09;;;9.04;100.00
66668;BME280;57205;51.438;-2.006;2024-03-06T09:29:17;101376.47;;;9.71;100.00
66668;BME280;57205;51.438;-2.006;2024-03-06T09:31:42;101363.69;;;9.73;100.00
66668;BME280;57205;51.438;-2.006;2024-03-06T09:34:08;101375.03;;;10.25;100.00
66668;BME280;57205;51.438;-2.006;2024-03-06T09:36:41;101372.63;;;11.00;100.00
66668;BME280;57205;51.438;-2.006;2024-03-06T09:39:14;101367.13;;;11.55;100.00
66668;BME280;57205;51.438;-2.006;2024-03-06T09:41:45;101367.34;;;11.75;100.00
66668;BME280;57205;51.438;-2.006;2024-03-06T09:44:11;101362.28;;;12.05;100.00
66668;BME280;57205;51.438;-2.006;2024-03-06T09:46:41;101372.81;;;12.48;100.00
66668;BME280;57205;51.438;-2.006;2024-03-06T09:49:08;101363.53;;;12.71;100.00
66668;BME280;57205;51.438;-2.006;2024-03-06T09:51:35;101366.59;;;12.90;100.00
66668;BME280;57205;51.438;-2.006;2024-03-06T09:54:01;101375.66;;;13.15;100.00
66668;BME280;57205;51.438;-2.006;2024-03-06T09:56:28;101367.38;;;13.37;100.00
66668;BME280;57205;51.438;-2.006;2024-03-06T09:58:53;101374.72;;;13.61;100.00
66668;BME280;57205;51.438;-2.006;2024-03-06T10:01:20;101371.78;;;13.88;100.00
66668;BME280;57205;51.438;-2.006;2024-03-06T10:03:48;101373.16;;;13.86;100.00
66668;BME280;57205;51.438;-2.006;2024-03-06T10:06:13;101387.16;;;14.03;100.00
66668;BME280;57205;51.438;-2.006;2024-03-06T10:08:42;101370.47;;;14.26;100.00
66668;BME280;57205;51.438;-2.006;2024-03-06T10:11:07;101375.84;;;14.16;100.00
66668;BME280;57205;51.438;-2.006;2024-03-06T10:13:33;101373.97;;;14.06;100.00
66668;BME280;57205;51.438;-2.006;2024-03-06T10:16:03;101375.03;;;14.00;100.00
66668;BME280;57205;51.438;-2.006;2024-03-06T10:18:30;101376.91;;;13.85;100.00
66668;BME280;57205;51.438;-2.006;2024-03-06T10:20:58;101376.41;;;14.23;100.00
66668;BME280;57205;51.438;-2.006;2024-03-06T10:23:24;101370.25;;;14.32;100.00
66668;BME280;57205;51.438;-2.006;2024-03-06T10:25:50;101371.81;;;14.23;100.00
66668;BME280;57205;51.438;-2.006;2024-03-06T10:28:17;101382.06;;;14.46;100.00
66668;BME280;57205;51.438;-2.006;2024-03-06T10:30:43;101384.19;;;14.04;100.00
66668;BME280;57205;51.438;-2.006;2024-03-06T10:33:09;101378.78;;;13.74;100.00
66668;BME280;57205;51.438;-2.006;2024-03-06T10:35:36;101381.09;;;13.45;100.00
66668;BME280;57205;51.438;-2.006;2024-03-06T10:38:03;101393.72;;;13.35;100.00
66668;BME280;57205;51.438;-2.006;2024-03-06T10:40:36;101393.16;;;13.33;100.00
66668;BME280;57205;51.438;-2.006;2024-03-06T10:43:03;101387.41;;;13.04;100.00
66668;BME280;57205;51.438;-2.006;2024-03-06T10:45:51;101388.78;;;12.65;100.00
66668;BME280;57205;51.438;-2.006;2024-03-06T10:48:17;101399.25;;;12.30;100.00
66668;BME280;57205;51.438;-2.006;2024-03-06T10:50:44;101400.25;;;11.92;100.00
66668;BME280;57205;51.438;-2.006;2024-03-06T10:53:11;101411.06;;;11.32;100.00
66668;BME280;57205;51.438;-2.006;2024-03-06T10:55:38;101412.31;;;11.25;100.00
66668;BME280;57205;51.438;-2.006;2024-03-06T10:58:06;101416.13;;;10.91;100.00
66668;BME280;57205;51.438;-2.006;2024-03-06T11:00:46;101419.88;;;10.90;100.00
66668;BME280;57205;51.438;-2.006;2024-03-06T11:03:12;101419.59;;;10.69;100.00
66668;BME280;57205;51.438;-2.006;2024-03-06T11:05:39;101422.84;;;10.71;100.00
66668;BME280;57205;51.438;-2.006;2024-03-06T11:08:08;101412.28;;;10.48;100.00
66668;BME280;57205;51.438;-2.006;2024-03-06T11:10:36;101411.25;;;10.33;100.00
66668;BME280;57205;51.438;-2.006;2024-03-06T11:13:03;101409.53;;;10.10;100.00
66668;BME280;57205;51.438;-2.006;2024-03-06T11:15:30;101415.34;;;10.24;100.00
66668;BME280;57205;51.438;-2.006;2024-03-06T11:17:55;101410.69;;;10.31;100.00
66668;BME280;57205;51.438;-2.006;2024-03-06T11:20:21;101417.00;;;10.41;100.00
66668;BME280;57205;51.438;-2.006;2024-03-06T11:28:22;101419.91;;;10.73;100.00
66668;BME280;57205;51.438;-2.006;2024-03-06T11:31:04;101419.19;;;10.77;100.00
66668;BME280;57205;51.438;-2.006;2024-03-06T11:33:40;101419.31;;;10.88;100.00
66668;BME280;57205;51.438;-2.006;2024-03-06T11:36:28;101413.38;;;10.86;100.00
66668;BME280;57205;51.438;-2.006;2024-03-06T11:39:08;101415.81;;;10.87;100.00
66668;BME280;57205;51.438;-2.006;2024-03-06T11:44:15;101415.84;;;10.70;100.00
66668;BME280;57205;51.438;-2.006;2024-03-06T11:46:45;101423.41;;;10.57;100.00
66668;BME280;57205;51.438;-2.006;2024-03-06T11:49:40;101426.06;;;10.73;100.00
66668;BME280;57205;51.438;-2.006;2024-03-06T11:52:08;101417.25;;;10.95;100.00
66668;BME280;57205;51.438;-2.006;2024-03-06T11:54:41;101408.88;;;11.08;100.00
66668;BME280;57205;51.438;-2.006;2024-03-06T11:57:06;101408.75;;;11.19;100.00
66668;BME280;57205;51.438;-2.006;2024-03-06T11:59:35;101401.22;;;11.16;100.00
66668;BME280;57205;51.438;-2.006;2024-03-06T12:02:06;101404.91;;;11.10;100.00
66668;BME280;57205;51.438;-2.006;2024-03-06T12:04:33;101409.94;;;11.07;100.00
66668;BME280;57205;51.438;-2.006;2024-03-06T12:07:01;101402.38;;;11.04;100.00
66668;BME280;57205;51.438;-2.006;2024-03-06T12:09:32;101403.47;;;11.03;100.00
66668;BME280;57205;51.438;-2.006;2024-03-06T12:11:58;101400.66;;;11.14;100.00
66668;BME280;57205;51.438;-2.006;2024-03-06T12:14:23;101400.59;;;11.31;100.00
66668;BME280;57205;51.438;-2.006;2024-03-06T12:17:00;101398.91;;;11.46;100.00
66668;BME280;57205;51.438;-2.006;2024-03-06T12:19:31;101395.31;;;11.57;100.00
66668;BME280;57205;51.438;-2.006;2024-03-06T12:22:00;101390.75;;;11.80;100.00
66668;BME280;57205;51.438;-2.006;2024-03-06T12:24:26;101381.00;;;12.00;100.00
66668;BME280;57205;51.438;-2.006;2024-03-06T12:27:02;101388.56;;;12.08;100.00
66668;BME280;57205;51.438;-2.006;2024-03-06T12:29:32;101380.56;;;12.13;100.00
66668;BME280;57205;51.438;-2.006;2024-03-06T12:31:59;101383.50;;;12.12;100.00
66668;BME280;57205;51.438;-2.006;2024-03-06T12:34:25;101380.69;;;11.97;100.00
66668;BME280;57205;51.438;-2.006;2024-03-06T12:36:50;101378.81;;;11.97;100.00
66668;BME280;57205;51.438;-2.006;2024-03-06T12:39:16;101385.19;;;11.91;100.00
66668;BME280;57205;51.438;-2.006;2024-03-06T12:41:47;101375.22;;;11.82;100.00
66668;BME280;57205;51.438;-2.006;2024-03-06T12:44:13;101378.63;;;11.77;100.00